06AR weather

Bondair Airport
Higden, Arkansas, United States

Public forecast

Using degrees Fahrenheit for public forecast. Weather courtesy of forecast.io.

METAR (pilot weather report)

Closest report is Clinton Municipal Airport, 13.4 nm (24.8 km) WNW. Retrieved 2019/06/18 22:35 UTC (4 minutes ago):

KCCA 182235Z AUTO 00000KT 10SM SCT041 SCT047 BKN065 28/22 A2983 RMK AO2

TAF (pilot weather forecast)

Forecast is more than 6 hours old.

Closest forecast is Little Rock Air Force Base, 37.7 nm (69.9 km) S. Retrieved 2019/06/18 15:06 UTC (8 hours ago):

TAF TAF KLRF 181500Z 1815/1921 18006KT 9999 SCT015 SCT040 QNH2989INS BECMG 1816/1817 18006KT 9999 SCT035 QNH2980INS BECMG 1916/1917 22010G15KT 9999 FEW035 SCT250 QNH2982INS BECMG 1918/1919 23015G25KT 8000 -TSRA BKN020CB OVC050 QNH2977INS TX32/1823Z TN21/1911Z